Time;durP1;ratioP1;P1;durP2;ratioP2;P2;SDS_P1;SDS_P2;PMS_P1;PMS_P2;Temp;Humidity;BMP_temperature;BMP_pressure;BME280_temperature;BME280_humidity;BME280_pressure;Samples;Min_cycle;Max_cycle;Signal;HPM_P1;HPM_P2
2022/01/30 00:01:50;;;;;;;20.83;9.37;;;;;;;-0.04;100.00;-23813.97;5073827;28;20656;-68
2022/01/30 00:04:16;;;;;;;14.57;9.27;;;;;;;0.25;100.00;-23822.13;5083655;28;20217;-69
2022/01/30 00:06:41;;;;;;;16.20;9.63;;;;;;;0.14;100.00;-23819.13;5076926;28;20223;-69
2022/01/30 00:09:14;;;;;;;16.87;10.07;;;;;;;0.45;100.00;-23827.84;5090936;28;20191;-69
2022/01/30 00:11:41;;;;;;;16.90;9.57;;;;;;;-0.86;100.00;-23790.75;5074621;28;20192;-68
2022/01/30 00:14:12;;;;;;;14.67;9.23;;;;;;;0.11;100.00;-23818.13;5087917;28;20532;-69
2022/01/30 00:16:37;;;;;;;15.43;9.57;;;;;;;-0.07;100.00;-23813.09;5094532;28;20298;-68
2022/01/30 00:19:17;;;;;;;16.13;9.33;;;;;;;-0.34;100.00;-23805.50;5075037;28;20193;-69
2022/01/30 00:21:48;;;;;;;15.67;8.87;;;;;;;0.12;100.00;-23818.41;5056173;28;20176;-69
2022/01/30 00:24:21;;;;;;;19.33;8.90;;;;;;;0.27;100.00;-23822.69;5074150;28;20252;-69
2022/01/30 00:26:47;;;;;;;15.93;9.03;;;;;;;0.05;100.00;-23816.53;5073718;28;20258;-69
2022/01/30 00:29:13;;;;;;;16.13;8.93;;;;;;;-0.14;100.00;-23811.09;5074152;28;20553;-69
2022/01/30 00:31:39;;;;;;;14.00;8.73;;;;;;;0.25;100.00;-23822.25;5073822;28;20624;-68
2022/01/30 00:34:04;;;;;;;14.47;8.67;;;;;;;0.43;100.00;-23827.28;5058279;28;20657;-68
2022/01/30 00:36:31;;;;;;;15.57;8.67;;;;;;;0.32;100.00;-23824.13;5082235;28;20261;-69
2022/01/30 00:38:57;;;;;;;14.30;8.57;;;;;;;0.23;100.00;-23821.69;5087881;28;20687;-69
2022/01/30 00:41:23;;;;;;;14.43;8.53;;;;;;;0.75;100.00;-23836.44;5094031;28;20226;-69
2022/01/30 00:43:49;;;;;;;15.33;8.67;;;;;;;0.52;100.00;-23829.72;5074178;28;20193;-69
2022/01/30 00:46:14;;;;;;;15.37;8.93;;;;;;;0.42;100.00;-23827.00;5076072;28;20702;-68
2022/01/30 00:48:40;;;;;;;15.70;9.00;;;;;;;0.37;100.00;-23825.69;5082012;28;20264;-69
2022/01/30 00:51:05;;;;;;;15.27;9.00;;;;;;;0.75;100.00;-23836.28;5086473;28;20240;-68
2022/01/30 00:53:31;;;;;;;14.57;8.70;;;;;;;0.56;100.00;-23830.84;5093892;28;20173;-69
2022/01/30 00:55:56;;;;;;;17.33;9.53;;;;;;;0.00;100.00;-23815.25;5075588;28;20605;-69
2022/01/30 00:58:22;;;;;;;22.80;10.63;;;;;;;0.34;100.00;-23824.69;5074024;28;20228;-69
2022/01/30 01:00:47;;;;;;;16.50;10.40;;;;;;;-0.15;100.00;-23810.81;5079150;28;20243;-69
2022/01/30 01:03:12;;;;;;;16.70;10.27;;;;;;;0.18;100.00;-23820.25;5075545;28;20192;-69
2022/01/30 01:05:38;;;;;;;17.27;10.17;;;;;;;0.21;100.00;-23821.13;5101210;28;20242;-69
2022/01/30 01:08:52;;;;;;;18.27;10.47;;;;;;;-0.46;100.00;-23802.06;5093420;28;20191;-69
2022/01/30 01:12:06;;;;;;;16.03;9.53;;;;;;;-0.31;100.00;-23806.38;5064007;28;20288;-69
2022/01/30 01:13:57;;;;;;;16.87;10.60;;;;;;;-0.02;100.00;-23814.53;5078104;28;20685;-69
2022/01/30 01:24:34;;;;;;;18.83;9.87;;;;;;;-0.04;100.00;-23814.09;5077703;28;20192;-69
2022/01/30 01:26:59;;;;;;;18.23;9.37;;;;;;;-0.13;100.00;-23811.53;5073446;28;20180;-69
2022/01/30 01:29:25;;;;;;;17.00;9.20;;;;;;;-0.10;100.00;-23812.25;5067479;28;20210;-69
2022/01/30 01:31:50;;;;;;;15.97;9.03;;;;;;;-0.09;100.00;-23812.66;5093000;28;20532;-69
2022/01/30 01:34:39;;;;;;;18.57;9.77;;;;;;;-0.21;100.00;-23809.22;5074761;28;20295;-69
2022/01/30 01:37:09;;;;;;;15.77;9.33;;;;;;;-0.60;100.00;-23798.19;5075297;28;20283;-69
2022/01/30 01:39:35;;;;;;;15.17;8.93;;;;;;;-0.58;100.00;-23798.63;5076688;28;20362;-69
2022/01/30 01:42:00;;;;;;;17.03;9.87;;;;;;;-0.28;100.00;-23807.22;5079761;28;20649;-68
2022/01/30 01:44:42;;;;;;;17.57;10.10;;;;;;;-0.70;100.00;-23795.19;5092714;28;20181;-68
2022/01/30 01:47:11;;;;;;;16.00;9.80;;;;;;;-0.53;100.00;-23800.06;5078546;28;20209;-69
2022/01/30 01:49:38;;;;;;;18.10;9.70;;;;;;;-0.37;100.00;-23804.50;5077648;28;20552;-69
2022/01/30 01:54:43;;;;;;;18.60;9.87;;;;;;;-0.54;100.00;-23799.78;5079781;28;20194;-69
2022/01/30 01:57:09;;;;;;;15.07;9.17;;;;;;;-0.62;100.00;-23797.50;5076531;28;20611;-69
2022/01/30 01:59:34;;;;;;;14.57;8.50;;;;;;;-0.39;100.00;-23803.94;5073615;28;20184;-69
2022/01/30 02:02:01;;;;;;;15.67;9.50;;;;;;;-0.81;100.00;-23792.03;5079137;28;20341;-69
2022/01/30 02:04:28;;;;;;;13.93;8.30;;;;;;;-0.54;100.00;-23799.91;5072036;28;20188;-69
2022/01/30 02:07:07;;;;;;;13.73;8.60;;;;;;;-0.80;100.00;-23792.31;5088136;28;20307;-69
2022/01/30 02:09:33;;;;;;;13.37;8.33;;;;;;;-0.78;100.00;-23792.91;5089851;28;20252;-68
2022/01/30 02:12:00;;;;;;;11.87;7.77;;;;;;;-0.31;100.00;-23806.38;5071966;28;20172;-68
2022/01/30 02:14:41;;;;;;;15.37;8.63;;;;;;;-0.85;100.00;-23790.91;5071553;28;20205;-68
2022/01/30 02:28:09;;;;;;;13.03;8.00;;;;;;;-0.65;100.00;-23796.78;5071643;28;20177;-68
2022/01/30 02:30:37;;;;;;;13.83;8.50;;;;;;;-1.07;100.00;-23784.88;5071472;28;20162;-68
2022/01/30 02:33:03;;;;;;;16.07;9.43;;;;;;;-0.94;100.00;-23788.59;5055979;28;20269;-68
2022/01/30 02:35:28;;;;;;;14.93;9.57;;;;;;;-0.83;100.00;-23791.59;5074300;28;20689;-68
2022/01/30 02:37:57;;;;;;;17.73;9.97;;;;;;;-1.03;100.00;-23785.88;5082435;28;20238;-68
2022/01/30 02:40:22;;;;;;;17.17;9.97;;;;;;;-1.42;100.00;-23774.81;5091702;28;20173;-68
2022/01/30 02:42:51;;;;;;;17.23;9.97;;;;;;;-1.39;100.00;-23775.69;5081394;28;20246;-69
2022/01/30 02:45:18;;;;;;;17.17;10.07;;;;;;;-1.02;100.00;-23786.31;5076583;28;20674;-69
2022/01/30 02:50:50;;;;;;;17.10;9.57;;;;;;;-0.96;100.00;-23788.03;5087327;28;20228;-69
2022/01/30 02:53:15;;;;;;;17.07;9.50;;;;;;;-1.38;100.00;-23775.97;5071610;28;20180;-69
2022/01/30 02:55:41;;;;;;;14.40;9.00;;;;;;;-1.29;100.00;-23778.56;5053444;28;20218;-69
2022/01/30 02:58:06;;;;;;;17.67;9.00;;;;;;;-1.08;100.00;-23784.44;5053288;28;20185;-69
2022/01/30 03:00:32;;;;;;;15.77;9.73;;;;;;;-1.28;100.00;-23778.84;5053367;28;20170;-69
2022/01/30 03:02:58;;;;;;;15.20;9.10;;;;;;;-1.31;100.00;-23778.00;5082428;28;20185;-69
2022/01/30 03:05:24;;;;;;;15.87;9.50;;;;;;;-1.25;100.00;-23779.72;5075666;28;20229;-69
2022/01/30 03:07:49;;;;;;;16.07;9.60;;;;;;;-1.13;100.00;-23783.00;5091487;28;20162;-68
2022/01/30 03:10:15;;;;;;;18.93;10.30;;;;;;;-1.67;100.00;-23767.81;5082349;28;20178;-68
2022/01/30 03:12:41;;;;;;;18.10;11.00;;;;;;;-1.52;100.00;-23772.09;5071325;28;20231;-69
2022/01/30 03:15:07;;;;;;;17.27;10.27;;;;;;;-1.75;100.00;-23765.34;5071533;28;20209;-68
2022/01/30 03:17:33;;;;;;;18.23;10.40;;;;;;;-1.34;100.00;-23777.25;5070872;28;20212;-69
2022/01/30 03:19:58;;;;;;;17.60;9.57;;;;;;;-1.64;100.00;-23768.50;5082211;28;20182;-69
2022/01/30 03:22:25;;;;;;;18.13;10.63;;;;;;;-0.97;100.00;-23787.72;5081768;28;20203;-69
2022/01/30 03:24:50;;;;;;;17.63;10.27;;;;;;;-1.39;100.00;-23775.69;5095548;28;20184;-69
2022/01/30 03:27:16;;;;;;;16.60;10.20;;;;;;;-1.03;100.00;-23785.88;5083368;28;20641;-68
2022/01/30 03:29:49;;;;;;;16.80;10.23;;;;;;;-1.28;100.00;-23778.69;5075041;28;20182;-69
2022/01/30 03:32:14;;;;;;;18.40;10.13;;;;;;;-1.00;100.00;-23786.88;5084162;28;20181;-69
2022/01/30 03:34:39;;;;;;;17.23;9.23;;;;;;;-0.89;100.00;-23789.88;5077031;28;20550;-69
2022/01/30 03:37:05;;;;;;;15.07;9.10;;;;;;;-0.97;100.00;-23787.72;5095158;28;20177;-69
2022/01/30 03:39:30;;;;;;;15.03;9.10;;;;;;;-1.45;100.00;-23773.97;5089751;28;20189;-69
2022/01/30 03:41:56;;;;;;;17.60;9.07;;;;;;;-1.41;100.00;-23775.25;5074923;28;20227;-69
2022/01/30 03:44:21;;;;;;;17.07;8.83;;;;;;;-0.92;100.00;-23789.16;5074904;28;20185;-69
2022/01/30 03:46:46;;;;;;;14.00;8.47;;;;;;;-1.46;100.00;-23773.81;5056752;28;20532;-69
2022/01/30 03:49:12;;;;;;;15.07;9.13;;;;;;;-1.05;100.00;-23785.31;5074660;28;20253;-69
2022/01/30 03:51:37;;;;;;;17.40;9.17;;;;;;;-1.20;100.00;-23781.00;5074858;28;20190;-69
2022/01/30 03:54:03;;;;;;;15.03;8.60;;;;;;;-1.00;100.00;-23786.72;5076767;28;20201;-69
2022/01/30 03:56:28;;;;;;;15.47;8.97;;;;;;;-1.22;100.00;-23780.44;5083466;28;20480;-68
2022/01/30 03:58:53;;;;;;;17.43;8.40;;;;;;;-1.28;100.00;-23778.69;5084977;28;20182;-68
2022/01/30 04:01:19;;;;;;;14.47;8.70;;;;;;;-1.34;100.00;-23777.13;5093052;28;20665;-68
2022/01/30 04:03:44;;;;;;;15.37;8.87;;;;;;;-1.49;100.00;-23772.81;5078836;28;20193;-69
2022/01/30 04:06:12;;;;;;;15.73;8.23;;;;;;;-1.65;100.00;-23768.22;5064015;28;20244;-69
2022/01/30 04:08:38;;;;;;;15.07;8.57;;;;;;;-1.10;100.00;-23783.88;5094696;28;20632;-69
2022/01/30 04:11:04;;;;;;;17.37;8.70;;;;;;;-1.61;100.00;-23769.38;5081757;28;20273;-69
2022/01/30 04:13:30;;;;;;;16.77;8.73;;;;;;;-1.59;100.00;-23769.94;5074274;28;20253;-69
2022/01/30 04:15:56;;;;;;;14.77;8.53;;;;;;;-1.81;100.00;-23763.78;5074045;28;20162;-69
2022/01/30 04:18:22;;;;;;;14.30;8.63;;;;;;;-1.48;100.00;-23773.25;5074544;28;20177;-69
2022/01/30 04:20:48;;;;;;;14.50;8.30;;;;;;;-1.54;100.00;-23771.53;5074210;28;20201;-69
2022/01/30 04:23:14;;;;;;;15.03;8.13;;;;;;;-1.22;100.00;-23780.44;5054221;28;20220;-69
2022/01/30 04:25:40;;;;;;;14.07;8.73;;;;;;;-1.84;100.00;-23763.06;5078784;28;20174;-69
2022/01/30 04:28:05;;;;;;;14.87;8.27;;;;;;;-1.81;100.00;-23763.78;5085916;28;20189;-69
2022/01/30 04:30:31;;;;;;;15.17;8.70;;;;;;;-1.41;100.00;-23775.25;5079193;28;20238;-69
2022/01/30 04:32:57;;;;;;;14.47;8.47;;;;;;;-1.56;100.00;-23770.81;5072413;28;20174;-69
2022/01/30 04:35:26;;;;;;;15.37;7.80;;;;;;;-1.49;100.00;-23772.97;5087818;28;20702;-69
2022/01/30 04:38:16;;;;;;;16.53;8.60;;;;;;;-1.92;100.00;-23760.75;5093279;28;20180;-68
2022/01/30 05:09:43;;;;;;;12.73;7.73;;;;;;;-1.61;100.00;-23769.38;5075439;28;20178;-68
2022/01/30 05:12:10;;;;;;;12.67;8.07;;;;;;;-2.02;100.00;-23757.91;5093099;28;20530;-69
2022/01/30 05:14:37;;;;;;;13.53;7.60;;;;;;;-1.89;100.00;-23761.47;5087891;28;20691;-69
2022/01/30 05:17:04;;;;;;;12.50;7.57;;;;;;;-1.39;100.00;-23775.69;5072923;28;20173;-69
2022/01/30 05:19:30;;;;;;;13.93;7.80;;;;;;;-1.55;100.00;-23771.09;5088658;28;20196;-69
2022/01/30 05:21:56;;;;;;;13.23;7.20;;;;;;;-1.45;100.00;-23773.97;5085446;28;20191;-69
2022/01/30 05:24:22;;;;;;;11.80;7.40;;;;;;;-1.74;100.00;-23765.78;5073084;28;20224;-69
2022/01/30 05:26:48;;;;;;;12.30;7.30;;;;;;;-1.42;100.00;-23774.81;5090581;28;20186;-69
2022/01/30 05:29:15;;;;;;;13.13;7.23;;;;;;;-1.04;100.00;-23785.72;5072648;28;20204;-69
2022/01/30 05:31:41;;;;;;;12.60;7.53;;;;;;;-1.13;100.00;-23783.16;5072995;28;20174;-68
2022/01/30 05:34:08;;;;;;;12.93;7.93;;;;;;;-2.09;100.00;-23755.88;5072666;28;20190;-68
2022/01/30 05:36:35;;;;;;;13.67;7.67;;;;;;;-1.04;100.00;-23785.59;5072810;28;20182;-68
2022/01/30 05:39:01;;;;;;;11.90;7.43;;;;;;;-1.17;100.00;-23782.00;5072483;28;20205;-68
2022/01/30 05:41:27;;;;;;;10.73;6.87;;;;;;;-1.24;98.70;-23779.84;5072156;28;20672;-69
2022/01/30 05:43:57;;;;;;;12.57;7.23;;;;;;;-0.94;97.76;-23788.47;5072582;28;20210;-69
2022/01/30 05:46:38;;;;;;;13.73;7.57;;;;;;;-0.74;98.47;-23794.06;5074912;28;20273;-69
2022/01/30 05:49:04;;;;;;;11.70;7.30;;;;;;;-0.75;97.85;-23793.75;5086107;28;20177;-69
2022/01/30 05:51:29;;;;;;;14.80;8.50;;;;;;;-0.79;97.09;-23792.63;5077285;28;20239;-69
2022/01/30 05:53:55;;;;;;;14.83;8.70;;;;;;;-0.58;95.91;-23798.63;5071801;28;20198;-68
2022/01/30 05:56:20;;;;;;;13.23;7.70;;;;;;;-0.64;94.97;-23797.06;5092289;28;20652;-69
2022/01/30 05:58:46;;;;;;;12.13;7.13;;;;;;;-1.14;95.83;-23782.72;5092482;28;20174;-69
2022/01/30 06:01:11;;;;;;;12.23;7.50;;;;;;;-0.53;94.39;-23800.06;5092098;28;20670;-69
2022/01/30 06:03:36;;;;;;;11.90;7.50;;;;;;;-0.67;94.50;-23796.06;5092538;28;20179;-69
2022/01/30 06:06:02;;;;;;;14.30;8.43;;;;;;;-0.58;95.02;-23798.63;5070260;28;20225;-69
2022/01/30 06:08:41;;;;;;;12.83;8.10;;;;;;;-1.00;94.44;-23786.88;5061492;28;20180;-69
2022/01/30 06:11:07;;;;;;;13.07;8.13;;;;;;;-0.66;94.78;-23796.34;5053966;28;20179;-69
2022/01/30 06:13:32;;;;;;;14.57;8.77;;;;;;;-0.63;94.29;-23797.34;5071757;28;20227;-69
2022/01/30 06:15:59;;;;;;;14.17;9.13;;;;;;;-0.52;94.05;-23800.34;5062493;28;20187;-69
2022/01/30 06:18:24;;;;;;;13.83;8.60;;;;;;;-0.41;93.45;-23803.34;5061845;28;20192;-69
2022/01/30 06:20:50;;;;;;;16.60;8.80;;;;;;;-0.75;93.78;-23793.91;5057132;28;20277;-70
2022/01/30 06:23:15;;;;;;;15.17;9.10;;;;;;;-0.20;91.58;-23809.38;5058066;28;20765;-70
2022/01/30 06:25:40;;;;;;;15.70;7.80;;;;;;;-0.61;90.14;-23797.91;5055916;28;20540;-68
2022/01/30 06:28:06;;;;;;;12.67;7.50;;;;;;;0.12;87.72;-23818.41;5059994;28;20203;-68
2022/01/30 06:30:31;;;;;;;12.20;7.40;;;;;;;0.37;86.49;-23825.69;5070390;28;20187;-69
2022/01/30 06:32:57;;;;;;;11.90;6.87;;;;;;;0.03;86.40;-23815.97;5057136;28;20186;-70
2022/01/30 06:35:22;;;;;;;10.97;7.27;;;;;;;0.44;87.66;-23827.72;5051126;28;20746;-69
2022/01/30 06:37:47;;;;;;;15.03;7.60;;;;;;;0.69;86.58;-23834.72;5050140;28;20238;-69
2022/01/30 06:40:13;;;;;;;11.80;7.33;;;;;;;0.26;86.03;-23822.56;5051474;28;20656;-71
2022/01/30 06:42:39;;;;;;;11.73;6.73;;;;;;;0.81;86.03;-23838.00;5053844;28;20190;-69
2022/01/30 06:45:05;;;;;;;12.67;7.17;;;;;;;0.44;84.89;-23827.72;5060363;28;20189;-69
2022/01/30 06:47:31;;;;;;;11.47;6.20;;;;;;;1.09;84.39;-23846.03;5060381;28;20178;-71
2022/01/30 06:49:56;;;;;;;10.60;6.40;;;;;;;0.90;85.08;-23840.59;5051927;28;20278;-69
2022/01/30 06:52:22;;;;;;;9.73;6.13;;;;;;;0.62;85.22;-23832.56;5065248;28;20205;-69
2022/01/30 06:54:47;;;;;;;17.57;6.03;;;;;;;1.24;84.41;-23850.16;5071214;28;20327;-69
2022/01/30 06:57:12;;;;;;;10.43;5.77;;;;;;;1.03;82.04;-23844.16;5056216;28;20269;-70
2022/01/30 06:59:38;;;;;;;11.83;6.50;;;;;;;1.29;81.84;-23851.75;5066586;28;20562;-69
2022/01/30 07:02:05;;;;;;;11.73;6.20;;;;;;;1.00;81.85;-23843.31;5058648;28;20650;-68
2022/01/30 07:04:31;;;;;;;10.97;6.83;;;;;;;1.49;80.25;-23857.16;5075804;28;20173;-68
2022/01/30 07:06:57;;;;;;;14.40;6.77;;;;;;;1.05;80.82;-23844.88;5084786;28;20741;-70
2022/01/30 07:09:23;;;;;;;13.07;6.37;;;;;;;1.38;80.28;-23854.16;5075542;28;20181;-69
2022/01/30 07:11:48;;;;;;;12.10;6.83;;;;;;;1.68;77.16;-23862.59;5075846;28;20179;-69
2022/01/30 07:14:13;;;;;;;12.30;6.90;;;;;;;0.97;77.29;-23842.44;5075327;28;20217;-69
2022/01/30 07:16:39;;;;;;;11.17;7.33;;;;;;;1.66;77.78;-23862.03;5074790;28;20621;-69
2022/01/30 07:19:04;;;;;;;13.27;7.60;;;;;;;1.39;77.17;-23854.44;5075208;28;20170;-68
2022/01/30 07:21:29;;;;;;;12.80;7.20;;;;;;;1.83;76.59;-23866.75;5074823;28;20597;-70
2022/01/30 07:23:55;;;;;;;14.80;7.40;;;;;;;2.17;75.25;-23876.59;5075108;28;20215;-70
2022/01/30 07:26:20;;;;;;;11.67;7.50;;;;;;;1.75;74.03;-23864.59;5075249;28;20176;-69
2022/01/30 07:28:46;;;;;;;12.17;6.47;;;;;;;2.40;73.22;-23883.03;5075240;28;20178;-69
2022/01/30 07:31:11;;;;;;;8.93;6.10;;;;;;;2.25;70.41;-23878.75;5075199;28;20206;-70
2022/01/30 07:33:40;;;;;;;10.37;6.50;;;;;;;2.88;68.82;-23896.44;5077085;28;20272;-68
2022/01/30 07:36:06;;;;;;;9.33;5.73;;;;;;;2.91;67.86;-23897.28;5083738;28;20182;-69
2022/01/30 07:38:32;;;;;;;9.83;5.73;;;;;;;2.66;65.00;-23890.31;5078429;28;20272;-69
2022/01/30 07:40:58;;;;;;;17.63;5.70;;;;;;;2.57;64.17;-23887.88;5081985;28;20625;-69
2022/01/30 07:43:23;;;;;;;9.57;5.80;;;;;;;3.13;62.58;-23903.44;5083873;28;20236;-68
2022/01/30 07:45:49;;;;;;;9.80;5.33;;;;;;;3.41;62.23;-23911.41;5076294;28;20174;-70
2022/01/30 07:48:15;;;;;;;8.33;5.40;;;;;;;3.73;60.95;-23920.53;5092057;28;20186;-69
2022/01/30 07:50:41;;;;;;;8.67;5.60;;;;;;;3.60;60.59;-23916.69;5094373;28;20194;-70
2022/01/30 07:53:09;;;;;;;8.77;5.63;;;;;;;3.62;59.98;-23917.25;5082266;28;20180;-69
2022/01/30 07:55:35;;;;;;;10.83;5.80;;;;;;;3.58;59.88;-23916.25;5079744;28;20213;-69
2022/01/30 07:58:00;;;;;;;8.87;5.40;;;;;;;3.47;58.63;-23913.25;5075874;28;20173;-71
2022/01/30 08:00:26;;;;;;;11.27;5.73;;;;;;;3.33;58.70;-23909.28;5083419;28;20170;-69
2022/01/30 08:02:51;;;;;;;8.23;5.63;;;;;;;3.46;59.39;-23912.84;5083093;28;20268;-70
2022/01/30 08:05:17;;;;;;;8.97;5.83;;;;;;;3.18;60.17;-23904.84;5076592;28;20233;-71
2022/01/30 08:07:42;;;;;;;8.13;5.50;;;;;;;3.54;59.83;-23915.13;5073579;28;20687;-70
2022/01/30 08:10:08;;;;;;;13.00;5.73;;;;;;;3.72;59.77;-23920.25;5076327;28;20188;-70
2022/01/30 08:12:34;;;;;;;9.17;5.07;;;;;;;3.14;59.23;-23903.84;5087728;28;20190;-70
2022/01/30 08:15:00;;;;;;;9.20;5.47;;;;;;;3.47;59.06;-23913.13;5085399;28;20275;-69
2022/01/30 08:17:25;;;;;;;7.87;5.10;;;;;;;3.50;59.93;-23913.97;5080762;28;20227;-70
2022/01/30 08:19:51;;;;;;;8.77;5.60;;;;;;;3.35;60.08;-23909.84;5055745;28;20200;-70
2022/01/30 08:22:17;;;;;;;9.23;5.33;;;;;;;3.66;59.81;-23918.41;5092631;28;20208;-70
2022/01/30 08:24:43;;;;;;;8.70;5.50;;;;;;;3.77;59.76;-23921.53;5093872;28;20174;-70
2022/01/30 08:27:08;;;;;;;8.73;5.97;;;;;;;3.88;59.48;-23924.81;5076006;28;20667;-69
2022/01/30 08:29:34;;;;;;;8.87;5.97;;;;;;;3.77;59.60;-23921.53;5076248;28;20177;-69
2022/01/30 08:31:59;;;;;;;11.37;6.93;;;;;;;3.27;59.92;-23907.56;5094344;28;20174;-69
2022/01/30 08:34:26;;;;;;;9.87;6.23;;;;;;;3.30;59.85;-23908.41;5094159;28;20193;-69
2022/01/30 08:36:52;;;;;;;10.43;5.80;;;;;;;3.72;59.84;-23920.25;5082789;28;20641;-69
2022/01/30 08:39:17;;;;;;;12.07;6.40;;;;;;;3.15;60.48;-23904.13;5075136;28;20178;-70
2022/01/30 08:41:43;;;;;;;11.07;6.43;;;;;;;3.46;59.83;-23912.97;5093841;28;20616;-70
2022/01/30 08:44:08;;;;;;;9.50;6.10;;;;;;;3.89;59.06;-23924.94;5087810;28;20193;-70
2022/01/30 08:46:34;;;;;;;13.93;7.40;;;;;;;3.47;59.07;-23913.13;5084281;28;20185;-70
2022/01/30 08:48:59;;;;;;;13.97;7.50;;;;;;;3.47;57.00;-23913.25;5073532;28;20185;-70
2022/01/30 08:51:25;;;;;;;13.77;6.83;;;;;;;3.66;56.69;-23918.53;5087719;28;20191;-70
2022/01/30 08:53:50;;;;;;;12.90;6.23;;;;;;;3.85;55.30;-23923.81;5094369;28;20166;-70
2022/01/30 08:56:16;;;;;;;9.27;5.70;;;;;;;3.96;54.47;-23927.09;5074953;28;20622;-69
2022/01/30 08:58:41;;;;;;;13.07;5.93;;;;;;;3.89;54.97;-23924.94;5073338;28;20201;-69
2022/01/30 09:01:08;;;;;;;8.63;5.43;;;;;;;4.09;55.15;-23930.66;5073262;28;20311;-69
2022/01/30 09:03:34;;;;;;;7.03;4.83;;;;;;;4.24;54.65;-23934.91;5073356;28;20257;-69
2022/01/30 09:05:59;;;;;;;8.33;4.83;;;;;;;4.20;54.44;-23933.78;5075820;28;20352;-69
2022/01/30 09:08:25;;;;;;;7.77;5.07;;;;;;;3.98;53.81;-23927.50;5079238;28;20351;-70
2022/01/30 09:10:50;;;;;;;9.50;5.23;;;;;;;4.06;54.99;-23929.78;5085774;28;20181;-71
2022/01/30 09:13:15;;;;;;;8.60;5.37;;;;;;;4.01;54.92;-23928.38;5074347;28;20190;-69
2022/01/30 09:15:42;;;;;;;11.93;5.67;;;;;;;4.18;55.04;-23933.22;5085869;28;20231;-69
2022/01/30 09:18:10;;;;;;;8.80;5.60;;;;;;;4.32;55.67;-23937.19;5092439;28;20161;-69
2022/01/30 09:20:41;;;;;;;12.53;5.63;;;;;;;4.95;54.44;-23954.72;5075356;28;20190;-70
2022/01/30 09:23:07;;;;;;;11.93;6.00;;;;;;;4.98;55.20;-23955.69;5079788;28;20192;-70
2022/01/30 09:25:32;;;;;;;7.87;5.47;;;;;;;4.90;54.38;-23953.56;5077441;28;20205;-70
2022/01/30 09:27:58;;;;;;;11.30;5.70;;;;;;;5.04;54.15;-23957.25;5090767;28;20266;-69
2022/01/30 09:30:24;;;;;;;9.20;5.50;;;;;;;4.75;53.14;-23949.16;5081784;28;20269;-69
2022/01/30 09:32:49;;;;;;;10.47;5.80;;;;;;;4.82;54.05;-23951.16;5073952;28;20235;-69
2022/01/30 09:35:14;;;;;;;11.27;6.63;;;;;;;4.82;54.30;-23951.16;5092740;28;20205;-69
2022/01/30 09:37:40;;;;;;;12.10;6.43;;;;;;;4.95;53.81;-23954.84;5081674;28;20186;-69
2022/01/30 09:40:07;;;;;;;11.27;6.50;;;;;;;4.93;53.88;-23954.28;5071412;28;20262;-70
2022/01/30 09:42:33;;;;;;;11.53;6.90;;;;;;;5.16;53.84;-23960.81;5091739;28;20230;-69
2022/01/30 09:45:04;;;;;;;12.37;6.77;;;;;;;5.37;52.18;-23966.50;5088719;28;20182;-70
2022/01/30 09:47:30;;;;;;;15.60;7.30;;;;;;;5.34;51.64;-23965.78;5072742;28;20180;-69
2022/01/30 09:49:58;;;;;;;12.03;6.37;;;;;;;5.23;49.97;-23962.66;5072424;28;20171;-69
2022/01/30 09:52:24;;;;;;;14.80;6.80;;;;;;;5.52;49.60;-23970.91;5072293;28;20186;-69
2022/01/30 09:54:49;;;;;;;13.33;6.33;;;;;;;6.01;49.00;-23984.69;5074379;28;20206;-69
2022/01/30 09:57:15;;;;;;;12.57;6.77;;;;;;;6.07;48.47;-23986.41;5081244;28;20235;-69
2022/01/30 09:59:40;;;;;;;11.17;6.30;;;;;;;5.85;48.66;-23980.16;5081842;28;20231;-70
2022/01/30 10:02:09;;;;;;;11.97;7.20;;;;;;;6.53;48.15;-23999.19;5079519;28;20177;-69
2022/01/30 10:04:35;;;;;;;16.40;6.97;;;;;;;6.37;48.25;-23994.66;5057460;28;20178;-69
2022/01/30 10:07:10;;;;;;;19.30;6.57;;;;;;;6.58;47.25;-24000.59;5077633;28;20349;-69
2022/01/30 10:09:42;;;;;;;10.80;6.80;;;;;;;6.48;46.70;-23997.75;5062414;28;20270;-69
2022/01/30 10:15:11;;;;;;;9.87;6.23;;;;;;;6.51;45.53;-23998.63;5076281;28;20217;-69
2022/01/30 10:17:40;;;;;;;9.00;5.80;;;;;;;6.72;45.37;-24004.56;5082023;28;20189;-69
2022/01/30 10:20:09;;;;;;;10.33;5.10;;;;;;;6.92;44.39;-24010.13;5056195;28;20730;-69
2022/01/30 10:22:51;;;;;;;8.07;5.13;;;;;;;7.21;43.15;-24018.19;5080849;28;20185;-71
2022/01/30 10:25:19;;;;;;;8.23;5.30;;;;;;;7.31;42.43;-24021.16;5075475;28;20555;-70
2022/01/30 10:27:45;;;;;;;7.77;4.70;;;;;;;7.16;42.71;-24016.78;5078970;28;20188;-71
2022/01/30 10:30:20;;;;;;;7.53;5.10;;;;;;;7.53;42.47;-24027.28;5074707;28;20166;-71
2022/01/30 10:32:55;;;;;;;11.33;5.60;;;;;;;7.77;42.62;-24034.06;5078931;28;20640;-69
2022/01/30 10:35:20;;;;;;;8.13;4.87;;;;;;;7.44;42.00;-24024.72;5076014;28;20249;-70
2022/01/30 10:37:46;;;;;;;8.83;5.50;;;;;;;7.39;42.82;-24023.44;5078764;28;20194;-71
2022/01/30 10:40:19;;;;;;;13.27;5.70;;;;;;;7.83;42.67;-24035.78;5074712;28;20238;-68
2022/01/30 10:42:47;;;;;;;8.73;5.93;;;;;;;7.95;42.57;-24039.16;5079180;28;20182;-69
2022/01/30 10:45:19;;;;;;;11.00;6.20;;;;;;;7.97;43.12;-24039.72;5056674;28;20217;-71
2022/01/30 10:47:45;;;;;;;12.03;6.30;;;;;;;7.81;43.60;-24035.22;5092025;28;20208;-69
2022/01/30 10:50:12;;;;;;;17.97;7.00;;;;;;;7.60;43.96;-24029.25;5082672;28;20535;-69
2022/01/30 10:52:59;;;;;;;12.83;7.60;;;;;;;7.11;44.51;-24015.50;5081673;28;20644;-69
2022/01/30 10:55:37;;;;;;;13.87;7.57;;;;;;;7.20;43.91;-24017.91;5076182;28;20292;-70
2022/01/30 10:58:06;;;;;;;12.53;7.20;;;;;;;7.72;42.83;-24032.66;5082493;28;20227;-70
2022/01/30 11:00:56;;;;;;;14.80;7.53;;;;;;;7.86;43.10;-24036.63;5076863;28;20241;-70
2022/01/30 11:03:45;;;;;;;9.63;6.07;;;;;;;7.95;41.93;-24039.16;5075345;28;20227;-70
2022/01/30 11:06:14;;;;;;;9.60;5.70;;;;;;;8.04;40.69;-24041.44;5078453;28;20248;-70
2022/01/30 11:08:42;;;;;;;10.27;5.73;;;;;;;7.69;41.30;-24031.66;5060771;28;20189;-70
2022/01/30 11:11:29;;;;;;;10.43;5.13;;;;;;;8.35;40.70;-24050.38;5090200;28;20177;-69
2022/01/30 11:19:15;;;;;;;12.43;5.73;;;;;;;8.74;40.68;-24061.25;5082606;28;20192;-69
2022/01/30 11:21:42;;;;;;;12.30;5.10;;;;;;;8.65;40.67;-24058.72;5073997;28;20178;-69
2022/01/30 11:24:14;;;;;;;9.90;5.43;;;;;;;9.38;40.37;-24078.94;5079695;28;20621;-69
2022/01/30 11:26:40;;;;;;;11.47;5.00;;;;;;;9.44;40.27;-24080.63;5086620;28;20591;-69
2022/01/30 11:29:13;;;;;;;9.70;4.83;;;;;;;9.30;40.29;-24076.94;5091227;28;20169;-69
2022/01/30 11:31:39;;;;;;;13.57;5.00;;;;;;;9.27;40.08;-24076.09;5073283;28;20259;-69
2022/01/30 11:34:06;;;;;;;7.47;4.33;;;;;;;9.47;40.21;-24081.47;5082470;28;20198;-69
2022/01/30 11:36:33;;;;;;;14.07;4.50;;;;;;;10.17;39.84;-24101.13;5079776;28;20182;-70
2022/01/30 11:39:00;;;;;;;6.40;4.23;;;;;;;9.85;38.97;-24092.22;5079758;28;20253;-69
2022/01/30 11:41:30;;;;;;;7.18;4.07;;;;;;;9.90;39.58;-24093.47;5063001;28;20236;-70
2022/01/30 11:44:17;;;;;;;7.87;4.20;;;;;;;10.43;39.91;-24108.47;5075936;28;20174;-70
2022/01/30 11:46:43;;;;;;;8.63;3.80;;;;;;;10.54;39.58;-24111.56;5085911;28;20192;-69
2022/01/30 11:49:16;;;;;;;6.40;4.28;;;;;;;10.63;39.71;-24114.09;5056829;28;20178;-69
2022/01/30 11:51:52;;;;;;;12.80;4.18;;;;;;;10.85;39.80;-24120.16;5086178;28;20322;-68
2022/01/30 11:54:40;;;;;;;7.72;4.07;;;;;;;10.97;39.68;-24123.41;5074414;28;20197;-68
2022/01/30 11:57:18;;;;;;;7.63;4.15;;;;;;;11.01;39.56;-24124.69;5085500;28;20186;-68
2022/01/30 11:59:43;;;;;;;7.25;4.40;;;;;;;11.16;39.74;-24128.63;5075511;28;20257;-69
2022/01/30 12:02:28;;;;;;;6.25;4.10;;;;;;;11.02;39.66;-24124.81;5081800;28;20624;-69
2022/01/30 12:04:59;;;;;;;5.32;3.70;;;;;;;11.08;39.19;-24126.50;5079605;28;20191;-69
2022/01/30 12:07:49;;;;;;;7.50;3.65;;;;;;;11.23;39.67;-24130.59;5083326;28;20182;-70
2022/01/30 12:10:26;;;;;;;8.55;3.60;;;;;;;11.75;39.22;-24145.13;5081504;28;20182;-69
2022/01/30 12:13:03;;;;;;;9.73;3.72;;;;;;;11.98;39.10;-24151.44;5082934;28;20267;-70
2022/01/30 12:15:47;;;;;;;6.03;2.70;;;;;;;12.15;38.47;-24156.38;5073957;28;20221;-69
2022/01/30 12:18:14;;;;;;;7.35;2.67;;;;;;;12.27;38.11;-24159.75;5083544;28;20185;-69
2022/01/30 12:21:08;;;;;;;4.60;2.22;;;;;;;12.22;38.17;-24158.34;5064356;28;20182;-70
2022/01/30 12:23:39;;;;;;;5.30;2.28;;;;;;;12.23;37.66;-24158.50;5081575;28;20214;-70
2022/01/30 12:26:10;;;;;;;3.60;2.28;;;;;;;12.23;36.65;-24158.63;5075939;28;20174;-68